sensor_id;sensor_type;location;lat;lon;timestamp;pressure;altitude;pressure_sealevel;temperature;humidity
75891;BME280;64571;47.512;19.054;2023-02-03T00:00:02;101005.38;;;3.20;72.15
75891;BME280;64571;47.512;19.054;2023-02-03T00:03:12;101017.06;;;3.15;72.30
75891;BME280;64571;47.512;19.054;2023-02-03T00:06:17;101007.09;;;3.02;72.18
75891;BME280;64571;47.512;19.054;2023-02-03T00:09:19;101031.84;;;3.14;71.94
75891;BME280;64571;47.512;19.054;2023-02-03T00:12:22;101033.16;;;3.12;71.52
75891;BME280;64571;47.512;19.054;2023-02-03T00:15:24;101046.19;;;3.16;71.80
75891;BME280;64571;47.512;19.054;2023-02-03T00:18:28;101048.50;;;3.01;71.91
75891;BME280;64571;47.512;19.054;2023-02-03T00:21:30;101039.22;;;3.02;71.46
75891;BME280;64571;47.512;19.054;2023-02-03T00:24:33;101051.47;;;2.99;71.02
75891;BME280;64571;47.512;19.054;2023-02-03T00:27:35;101073.50;;;3.11;70.62
75891;BME280;64571;47.512;19.054;2023-02-03T00:30:38;101058.06;;;2.98;69.96
75891;BME280;64571;47.512;19.054;2023-02-03T00:33:40;101078.84;;;3.06;70.05
75891;BME280;64571;47.512;19.054;2023-02-03T00:36:43;101079.84;;;3.12;69.90
75891;BME280;64571;47.512;19.054;2023-02-03T00:39:48;101084.94;;;3.08;69.01
75891;BME280;64571;47.512;19.054;2023-02-03T00:42:51;101094.47;;;3.05;68.99
75891;BME280;64571;47.512;19.054;2023-02-03T00:45:54;101095.16;;;3.01;68.31
75891;BME280;64571;47.512;19.054;2023-02-03T00:48:56;101072.53;;;2.87;67.77
75891;BME280;64571;47.512;19.054;2023-02-03T00:51:59;101077.19;;;2.87;68.19
75891;BME280;64571;47.512;19.054;2023-02-03T00:55:02;101102.19;;;2.97;68.51
75891;BME280;64571;47.512;19.054;2023-02-03T00:58:05;101113.03;;;2.92;68.10
75891;BME280;64571;47.512;19.054;2023-02-03T01:01:07;101100.69;;;2.83;68.05
75891;BME280;64571;47.512;19.054;2023-02-03T01:04:10;101090.63;;;2.76;67.59
75891;BME280;64571;47.512;19.054;2023-02-03T01:07:12;101102.28;;;2.72;67.61
75891;BME280;64571;47.512;19.054;2023-02-03T01:10:15;101104.81;;;2.73;67.60
75891;BME280;64571;47.512;19.054;2023-02-03T01:13:18;101118.47;;;2.80;67.87
75891;BME280;64571;47.512;19.054;2023-02-03T01:16:22;101116.94;;;2.66;68.49
75891;BME280;64571;47.512;19.054;2023-02-03T01:19:25;101153.31;;;2.79;68.92
75891;BME280;64571;47.512;19.054;2023-02-03T01:22:28;101150.62;;;2.73;69.20
75891;BME280;64571;47.512;19.054;2023-02-03T01:25:34;101147.72;;;2.68;69.27
75891;BME280;64571;47.512;19.054;2023-02-03T01:28:37;101157.88;;;2.67;69.47
75891;BME280;64571;47.512;19.054;2023-02-03T01:31:40;101156.19;;;2.66;68.90
75891;BME280;64571;47.512;19.054;2023-02-03T01:34:43;101140.31;;;2.50;68.80
75891;BME280;64571;47.512;19.054;2023-02-03T01:37:46;101152.06;;;2.57;68.63
75891;BME280;64571;47.512;19.054;2023-02-03T01:40:48;101156.47;;;2.58;69.00
75891;BME280;64571;47.512;19.054;2023-02-03T01:43:53;101154.19;;;2.55;69.43
75891;BME280;64571;47.512;19.054;2023-02-03T01:46:56;101152.13;;;2.50;69.61
75891;BME280;64571;47.512;19.054;2023-02-03T01:53:11;101169.41;;;2.51;69.63
75891;BME280;64571;47.512;19.054;2023-02-03T01:56:14;101165.44;;;2.47;68.87
75891;BME280;64571;47.512;19.054;2023-02-03T01:59:18;101174.91;;;2.51;68.89
75891;BME280;64571;47.512;19.054;2023-02-03T02:02:23;101147.03;;;2.29;68.60
75891;BME280;64571;47.512;19.054;2023-02-03T02:05:52;101172.84;;;2.46;68.74
75891;BME280;64571;47.512;19.054;2023-02-03T02:08:56;101185.94;;;2.44;68.75
75891;BME280;64571;47.512;19.054;2023-02-03T02:12:02;101172.50;;;2.36;68.84
75891;BME280;64571;47.512;19.054;2023-02-03T02:15:05;101182.22;;;2.39;68.42
75891;BME280;64571;47.512;19.054;2023-02-03T02:22:06;101168.78;;;2.31;68.38
75891;BME280;64571;47.512;19.054;2023-02-03T02:25:26;101161.16;;;2.33;67.93
75891;BME280;64571;47.512;19.054;2023-02-03T02:29:07;101162.37;;;2.37;66.33
75891;BME280;64571;47.512;19.054;2023-02-03T02:32:26;101162.81;;;2.34;66.77
75891;BME280;64571;47.512;19.054;2023-02-03T02:39:24;101162.63;;;2.35;66.29
75891;BME280;64571;47.512;19.054;2023-02-03T02:42:56;101144.97;;;2.24;66.33
75891;BME280;64571;47.512;19.054;2023-02-03T02:46:26;101169.94;;;2.41;66.23
75891;BME280;64571;47.512;19.054;2023-02-03T02:49:43;101173.31;;;2.43;66.01
75891;BME280;64571;47.512;19.054;2023-02-03T02:52:49;101171.84;;;2.41;65.57
75891;BME280;64571;47.512;19.054;2023-02-03T02:55:52;101182.37;;;2.44;64.70
75891;BME280;64571;47.512;19.054;2023-02-03T02:58:59;101170.59;;;2.37;65.67
75891;BME280;64571;47.512;19.054;2023-02-03T03:02:03;101164.78;;;2.26;65.04
75891;BME280;64571;47.512;19.054;2023-02-03T03:05:09;101185.38;;;2.36;64.88
75891;BME280;64571;47.512;19.054;2023-02-03T03:08:15;101188.12;;;2.36;64.60
75891;BME280;64571;47.512;19.054;2023-02-03T03:11:20;101169.75;;;2.11;64.65
75891;BME280;64571;47.512;19.054;2023-02-03T03:14:27;101189.09;;;2.23;64.83
75891;BME280;64571;47.512;19.054;2023-02-03T03:17:44;101185.38;;;2.11;64.77
75891;BME280;64571;47.512;19.054;2023-02-03T03:20:49;101190.81;;;2.17;64.99
75891;BME280;64571;47.512;19.054;2023-02-03T03:23:56;101188.50;;;2.14;64.75
75891;BME280;64571;47.512;19.054;2023-02-03T03:27:10;101164.78;;;2.01;64.42
75891;BME280;64571;47.512;19.054;2023-02-03T03:30:21;101186.59;;;2.15;63.64
75891;BME280;64571;47.512;19.054;2023-02-03T03:33:24;101167.09;;;2.05;63.65
75891;BME280;64571;47.512;19.054;2023-02-03T03:43:19;101163.00;;;2.14;62.95
75891;BME280;64571;47.512;19.054;2023-02-03T03:46:30;101170.56;;;2.18;63.51
75891;BME280;64571;47.512;19.054;2023-02-03T03:49:37;101161.09;;;2.14;63.35
75891;BME280;64571;47.512;19.054;2023-02-03T03:52:42;101171.47;;;2.12;63.75
75891;BME280;64571;47.512;19.054;2023-02-03T03:55:49;101151.75;;;1.97;64.28
75891;BME280;64571;47.512;19.054;2023-02-03T03:58:52;101175.06;;;2.06;64.55
75891;BME280;64571;47.512;19.054;2023-02-03T04:01:56;101171.09;;;2.02;64.98
75891;BME280;64571;47.512;19.054;2023-02-03T04:05:01;101142.78;;;1.83;65.34
75891;BME280;64571;47.512;19.054;2023-02-03T04:08:04;101166.94;;;1.93;65.81
75891;BME280;64571;47.512;19.054;2023-02-03T04:11:07;101166.09;;;1.99;65.79
75891;BME280;64571;47.512;19.054;2023-02-03T04:14:09;101157.38;;;2.02;65.16
75891;BME280;64571;47.512;19.054;2023-02-03T04:17:12;101161.59;;;2.05;65.04
75891;BME280;64571;47.512;19.054;2023-02-03T04:20:15;101163.72;;;2.02;64.51
75891;BME280;64571;47.512;19.054;2023-02-03T04:23:20;101159.53;;;2.00;65.42
75891;BME280;64571;47.512;19.054;2023-02-03T04:26:23;101131.16;;;1.88;65.34
75891;BME280;64571;47.512;19.054;2023-02-03T04:29:25;101155.13;;;1.99;65.14
75891;BME280;64571;47.512;19.054;2023-02-03T04:32:28;101149.16;;;2.02;64.91
75891;BME280;64571;47.512;19.054;2023-02-03T04:35:32;101153.81;;;2.01;65.56
75891;BME280;64571;47.512;19.054;2023-02-03T04:38:35;101132.81;;;1.89;65.54
75891;BME280;64571;47.512;19.054;2023-02-03T04:41:37;101153.41;;;1.98;65.64
75891;BME280;64571;47.512;19.054;2023-02-03T04:44:40;101142.44;;;1.98;65.93
75891;BME280;64571;47.512;19.054;2023-02-03T04:47:42;101148.97;;;2.03;66.07
75891;BME280;64571;47.512;19.054;2023-02-03T04:50:45;101133.47;;;1.91;65.98
75891;BME280;64571;47.512;19.054;2023-02-03T04:53:47;101143.25;;;2.05;66.52
75891;BME280;64571;47.512;19.054;2023-02-03T04:56:50;101133.94;;;2.06;66.54
75891;BME280;64571;47.512;19.054;2023-02-03T04:59:53;101123.47;;;2.03;66.04
75891;BME280;64571;47.512;19.054;2023-02-03T05:02:55;101132.88;;;2.07;66.29
75891;BME280;64571;47.512;19.054;2023-02-03T05:05:58;101132.25;;;2.12;64.84
75891;BME280;64571;47.512;19.054;2023-02-03T05:09:00;101145.87;;;2.18;64.61
75891;BME280;64571;47.512;19.054;2023-02-03T05:12:03;101128.34;;;2.19;63.70
75891;BME280;64571;47.512;19.054;2023-02-03T05:15:06;101138.72;;;2.17;63.17
75891;BME280;64571;47.512;19.054;2023-02-03T05:18:09;101121.47;;;2.10;62.82
75891;BME280;64571;47.512;19.054;2023-02-03T05:21:11;101135.50;;;2.20;63.05
75891;BME280;64571;47.512;19.054;2023-02-03T05:24:14;101123.78;;;2.13;62.37
75891;BME280;64571;47.512;19.054;2023-02-03T05:27:16;101146.38;;;2.34;62.18
75891;BME280;64571;47.512;19.054;2023-02-03T05:30:19;101153.91;;;2.38;59.14
75891;BME280;64571;47.512;19.054;2023-02-03T05:33:21;101150.22;;;2.51;54.68
75891;BME280;64571;47.512;19.054;2023-02-03T05:36:24;101155.25;;;2.54;54.28
75891;BME280;64571;47.512;19.054;2023-02-03T05:39:26;101154.81;;;2.57;54.92
75891;BME280;64571;47.512;19.054;2023-02-03T05:42:29;101155.50;;;2.52;54.64
75891;BME280;64571;47.512;19.054;2023-02-03T05:45:31;101138.31;;;2.39;55.42
75891;BME280;64571;47.512;19.054;2023-02-03T05:48:34;101157.56;;;2.57;55.87
75891;BME280;64571;47.512;19.054;2023-02-03T05:51:37;101164.44;;;2.41;55.00
75891;BME280;64571;47.512;19.054;2023-02-03T05:54:40;101137.81;;;2.23;55.83
75891;BME280;64571;47.512;19.054;2023-02-03T05:57:43;101153.16;;;2.31;55.97
75891;BME280;64571;47.512;19.054;2023-02-03T06:00:45;101153.66;;;2.21;56.27
75891;BME280;64571;47.512;19.054;2023-02-03T06:03:48;101167.06;;;2.29;56.90
75891;BME280;64571;47.512;19.054;2023-02-03T06:06:51;101139.00;;;2.09;57.35
75891;BME280;64571;47.512;19.054;2023-02-03T06:09:54;101149.09;;;2.34;56.80
75891;BME280;64571;47.512;19.054;2023-02-03T06:12:56;101156.72;;;2.32;57.10
75891;BME280;64571;47.512;19.054;2023-02-03T06:15:59;101133.13;;;2.31;57.75
75891;BME280;64571;47.512;19.054;2023-02-03T06:19:01;101145.56;;;2.51;57.87
75891;BME280;64571;47.512;19.054;2023-02-03T06:22:04;101136.62;;;2.38;56.98
75891;BME280;64571;47.512;19.054;2023-02-03T06:25:07;101162.53;;;2.42;57.69
75891;BME280;64571;47.512;19.054;2023-02-03T06:28:14;101166.94;;;2.43;58.24
75891;BME280;64571;47.512;19.054;2023-02-03T06:31:17;101169.88;;;2.48;58.72
75891;BME280;64571;47.512;19.054;2023-02-03T06:34:20;101171.59;;;2.42;58.55
75891;BME280;64571;47.512;19.054;2023-02-03T06:37:22;101161.03;;;2.46;58.92
75891;BME280;64571;47.512;19.054;2023-02-03T06:40:26;101171.09;;;2.52;59.25
75891;BME280;64571;47.512;19.054;2023-02-03T06:43:29;101179.50;;;2.57;58.58
75891;BME280;64571;47.512;19.054;2023-02-03T06:46:32;101180.34;;;2.58;56.96
75891;BME280;64571;47.512;19.054;2023-02-03T06:49:35;101182.41;;;2.62;57.67
75891;BME280;64571;47.512;19.054;2023-02-03T06:52:38;101182.97;;;2.71;57.79
75891;BME280;64571;47.512;19.054;2023-02-03T06:55:40;101159.63;;;2.62;57.53
75891;BME280;64571;47.512;19.054;2023-02-03T06:58:43;101190.66;;;2.81;57.23
75891;BME280;64571;47.512;19.054;2023-02-03T07:01:45;101180.41;;;2.69;56.06
75891;BME280;64571;47.512;19.054;2023-02-03T07:04:49;101177.62;;;2.76;56.00
75891;BME280;64571;47.512;19.054;2023-02-03T07:07:51;101168.84;;;2.86;56.04
75891;BME280;64571;47.512;19.054;2023-02-03T07:10:54;101160.69;;;2.79;55.53
75891;BME280;64571;47.512;19.054;2023-02-03T07:13:57;101172.00;;;2.89;54.58
75891;BME280;64571;47.512;19.054;2023-02-03T07:17:01;101168.75;;;2.92;55.17
75891;BME280;64571;47.512;19.054;2023-02-03T07:20:04;101170.22;;;2.95;54.73
75891;BME280;64571;47.512;19.054;2023-02-03T07:23:07;101151.00;;;2.76;53.34
75891;BME280;64571;47.512;19.054;2023-02-03T07:26:10;101153.31;;;2.98;53.72
75891;BME280;64571;47.512;19.054;2023-02-03T07:29:12;101139.19;;;2.94;53.17
75891;BME280;64571;47.512;19.054;2023-02-03T07:32:15;101161.97;;;3.13;52.51
75891;BME280;64571;47.512;19.054;2023-02-03T07:35:18;101161.91;;;3.20;52.39
75891;BME280;64571;47.512;19.054;2023-02-03T07:38:21;101145.97;;;3.10;51.83
75891;BME280;64571;47.512;19.054;2023-02-03T07:41:24;101155.66;;;3.13;52.33
75891;BME280;64571;47.512;19.054;2023-02-03T07:44:27;101147.19;;;3.14;52.60
75891;BME280;64571;47.512;19.054;2023-02-03T07:47:29;101177.22;;;3.27;52.69
75891;BME280;64571;47.512;19.054;2023-02-03T07:50:32;101178.44;;;3.32;52.73
75891;BME280;64571;47.512;19.054;2023-02-03T07:53:35;101179.09;;;3.15;53.17
75891;BME280;64571;47.512;19.054;2023-02-03T07:56:38;101169.94;;;3.03;53.45
75891;BME280;64571;47.512;19.054;2023-02-03T07:59:40;101171.75;;;3.09;54.95
75891;BME280;64571;47.512;19.054;2023-02-03T08:02:43;101180.28;;;3.19;54.07
75891;BME280;64571;47.512;19.054;2023-02-03T08:05:49;101192.44;;;3.12;53.64
75891;BME280;64571;47.512;19.054;2023-02-03T08:08:51;101198.47;;;3.02;54.04
75891;BME280;64571;47.512;19.054;2023-02-03T08:11:55;101193.56;;;3.04;54.02
75891;BME280;64571;47.512;19.054;2023-02-03T08:14:57;101194.00;;;3.01;54.37
75891;BME280;64571;47.512;19.054;2023-02-03T08:18:00;101187.62;;;3.07;53.85
75891;BME280;64571;47.512;19.054;2023-02-03T08:21:03;101195.25;;;3.05;53.92
75891;BME280;64571;47.512;19.054;2023-02-03T08:24:06;101194.34;;;3.11;54.11
75891;BME280;64571;47.512;19.054;2023-02-03T08:27:08;101192.81;;;3.15;54.15
75891;BME280;64571;47.512;19.054;2023-02-03T08:30:12;101163.38;;;3.04;54.49
75891;BME280;64571;47.512;19.054;2023-02-03T08:33:15;101183.88;;;3.01;56.03
75891;BME280;64571;47.512;19.054;2023-02-03T08:36:18;101174.59;;;2.84;56.90
75891;BME280;64571;47.512;19.054;2023-02-03T08:39:20;101196.75;;;3.01;57.79
75891;BME280;64571;47.512;19.054;2023-02-03T08:42:23;101194.94;;;3.13;58.52
75891;BME280;64571;47.512;19.054;2023-02-03T08:45:25;101172.97;;;3.13;58.45
75891;BME280;64571;47.512;19.054;2023-02-03T08:48:28;101174.78;;;3.01;58.46
75891;BME280;64571;47.512;19.054;2023-02-03T08:51:30;101196.16;;;3.17;58.83
75891;BME280;64571;47.512;19.054;2023-02-03T08:54:33;101198.91;;;3.17;59.19
75891;BME280;64571;47.512;19.054;2023-02-03T08:57:36;101205.16;;;3.06;59.79
75891;BME280;64571;47.512;19.054;2023-02-03T09:00:39;101205.00;;;3.19;59.97
75891;BME280;64571;47.512;19.054;2023-02-03T09:03:42;101209.28;;;3.15;60.62
75891;BME280;64571;47.512;19.054;2023-02-03T09:06:45;101197.09;;;2.93;62.99
75891;BME280;64571;47.512;19.054;2023-02-03T09:09:49;101211.31;;;2.83;64.43
75891;BME280;64571;47.512;19.054;2023-02-03T09:12:51;101209.00;;;2.62;66.57
75891;BME280;64571;47.512;19.054;2023-02-03T09:15:54;101196.84;;;2.51;68.05
75891;BME280;64571;47.512;19.054;2023-02-03T09:18:56;101208.28;;;2.48;70.67
75891;BME280;64571;47.512;19.054;2023-02-03T09:21:59;101213.53;;;2.49;71.15
75891;BME280;64571;47.512;19.054;2023-02-03T09:25:01;101217.50;;;2.28;73.15
75891;BME280;64571;47.512;19.054;2023-02-03T09:28:04;101213.25;;;2.33;74.65
75891;BME280;64571;47.512;19.054;2023-02-03T09:31:13;101211.69;;;2.18;76.43
75891;BME280;64571;47.512;19.054;2023-02-03T09:34:16;101206.22;;;1.87;79.21
75891;BME280;64571;47.512;19.054;2023-02-03T09:37:19;101196.75;;;1.83;80.20
75891;BME280;64571;47.512;19.054;2023-02-03T09:40:29;101196.88;;;1.63;82.56
75891;BME280;64571;47.512;19.054;2023-02-03T09:46:49;101182.34;;;1.62;84.82
75891;BME280;64571;47.512;19.054;2023-02-03T09:49:59;101181.72;;;1.60;85.10
75891;BME280;64571;47.512;19.054;2023-02-03T09:53:59;101174.78;;;1.58;85.58
75891;BME280;64571;47.512;19.054;2023-02-03T09:56:35;101157.31;;;1.84;85.03
75891;BME280;64571;47.512;19.054;2023-02-03T09:59:38;101150.00;;;2.02;83.60
75891;BME280;64571;47.512;19.054;2023-02-03T10:03:11;101125.66;;;1.88;84.08
75891;BME280;64571;47.512;19.054;2023-02-03T10:06:26;101126.53;;;2.13;84.02
75891;BME280;64571;47.512;19.054;2023-02-03T10:09:59;101112.03;;;2.06;84.20
75891;BME280;64571;47.512;19.054;2023-02-03T10:20:15;101103.69;;;2.19;85.50
75891;BME280;64571;47.512;19.054;2023-02-03T10:23:39;101092.22;;;2.04;86.32
75891;BME280;64571;47.512;19.054;2023-02-03T10:26:42;101088.84;;;2.02;86.67
75891;BME280;64571;47.512;19.054;2023-02-03T10:29:50;101072.53;;;2.14;86.47
75891;BME280;64571;47.512;19.054;2023-02-03T10:33:08;101036.47;;;1.92;87.08
75891;BME280;64571;47.512;19.054;2023-02-03T10:36:20;101032.41;;;1.76;87.80
75891;BME280;64571;47.512;19.054;2023-02-03T10:39:40;101058.13;;;2.00;88.09
75891;BME280;64571;47.512;19.054;2023-02-03T10:42:46;101051.66;;;2.13;87.92
75891;BME280;64571;47.512;19.054;2023-02-03T10:46:08;101028.50;;;2.09;87.70
75891;BME280;64571;47.512;19.054;2023-02-03T10:49:11;101013.47;;;1.93;88.16
75891;BME280;64571;47.512;19.054;2023-02-03T10:52:29;101032.22;;;1.96;88.84
75891;BME280;64571;47.512;19.054;2023-02-03T10:55:32;101023.91;;;2.02;89.00
75891;BME280;64571;47.512;19.054;2023-02-03T10:58:36;101016.44;;;1.91;89.49
75891;BME280;64571;47.512;19.054;2023-02-03T11:01:45;101014.25;;;2.00;89.21
75891;BME280;64571;47.512;19.054;2023-02-03T11:05:07;101001.00;;;1.97;89.60
75891;BME280;64571;47.512;19.054;2023-02-03T11:08:15;100995.06;;;2.18;88.78
75891;BME280;64571;47.512;19.054;2023-02-03T11:11:27;100971.47;;;1.99;88.42
75891;BME280;64571;47.512;19.054;2023-02-03T11:14:36;100980.66;;;1.86;89.96
75891;BME280;64571;47.512;19.054;2023-02-03T11:17:43;100975.44;;;2.03;89.56
75891;BME280;64571;47.512;19.054;2023-02-03T11:20:45;100934.38;;;1.96;89.10
75891;BME280;64571;47.512;19.054;2023-02-03T11:27:05;100933.25;;;2.04;89.49
75891;BME280;64571;47.512;19.054;2023-02-03T11:30:15;100956.69;;;2.00;89.82
75891;BME280;64571;47.512;19.054;2023-02-03T11:33:23;100929.44;;;1.87;89.31
75891;BME280;64571;47.512;19.054;2023-02-03T11:36:30;100930.50;;;2.04;89.66
75891;BME280;64571;47.512;19.054;2023-02-03T11:39:33;100918.31;;;2.00;89.27
75891;BME280;64571;47.512;19.054;2023-02-03T11:42:39;100922.44;;;1.91;89.39
75891;BME280;64571;47.512;19.054;2023-02-03T11:45:45;100918.63;;;1.73;90.24
75891;BME280;64571;47.512;19.054;2023-02-03T11:49:03;100887.84;;;1.53;90.70
75891;BME280;64571;47.512;19.054;2023-02-03T11:52:29;100898.34;;;1.56;90.93
75891;BME280;64571;47.512;19.054;2023-02-03T11:55:56;100894.34;;;1.59;91.00
75891;BME280;64571;47.512;19.054;2023-02-03T11:59:20;100876.12;;;1.46;91.44
75891;BME280;64571;47.512;19.054;2023-02-03T12:12:48;100829.03;;;1.74;90.83
75891;BME280;64571;47.512;19.054;2023-02-03T12:32:12;100786.81;;;1.82;90.83
75891;BME280;64571;47.512;19.054;2023-02-03T12:35:33;100773.81;;;1.89;90.45
75891;BME280;64571;47.512;19.054;2023-02-03T12:38:45;100765.78;;;1.75;90.55
75891;BME280;64571;47.512;19.054;2023-02-03T12:42:30;100751.38;;;1.80;90.51
75891;BME280;64571;47.512;19.054;2023-02-03T12:45:35;100748.44;;;1.82;90.58
75891;BME280;64571;47.512;19.054;2023-02-03T12:52:09;100714.66;;;1.69;90.52
75891;BME280;64571;47.512;19.054;2023-02-03T12:58:29;100711.09;;;1.99;90.56
75891;BME280;64571;47.512;19.054;2023-02-03T13:01:40;100701.03;;;1.93;90.46
75891;BME280;64571;47.512;19.054;2023-02-03T13:04:53;100685.94;;;2.02;90.46
75891;BME280;64571;47.512;19.054;2023-02-03T13:08:07;100663.16;;;1.90;90.54
75891;BME280;64571;47.512;19.054;2023-02-03T13:11:27;100653.63;;;1.81;90.53
75891;BME280;64571;47.512;19.054;2023-02-03T13:14:35;100654.34;;;1.88;90.70
75891;BME280;64571;47.512;19.054;2023-02-03T13:17:44;100636.44;;;1.73;91.06
75891;BME280;64571;47.512;19.054;2023-02-03T13:20:48;100647.44;;;1.97;90.86
75891;BME280;64571;47.512;19.054;2023-02-03T13:23:51;100630.66;;;2.05;90.58
75891;BME280;64571;47.512;19.054;2023-02-03T13:27:09;100635.91;;;1.95;90.72
75891;BME280;64571;47.512;19.054;2023-02-03T13:30:38;100623.97;;;2.01;90.68
75891;BME280;64571;47.512;19.054;2023-02-03T13:43:53;100582.63;;;2.02;90.79
75891;BME280;64571;47.512;19.054;2023-02-03T13:46:58;100591.34;;;2.23;90.65
75891;BME280;64571;47.512;19.054;2023-02-03T13:50:14;100578.22;;;2.13;90.95
75891;BME280;64571;47.512;19.054;2023-02-03T13:53:23;100560.34;;;2.11;90.71
75891;BME280;64571;47.512;19.054;2023-02-03T13:56:27;100553.09;;;2.16;90.89
75891;BME280;64571;47.512;19.054;2023-02-03T14:02:43;100561.44;;;2.21;91.18
75891;BME280;64571;47.512;19.054;2023-02-03T14:05:47;100529.84;;;2.31;90.94
75891;BME280;64571;47.512;19.054;2023-02-03T14:08:58;100552.34;;;2.44;90.87
75891;BME280;64571;47.512;19.054;2023-02-03T14:15:32;100543.50;;;2.54;90.98
75891;BME280;64571;47.512;19.054;2023-02-03T14:18:43;100542.31;;;2.50;90.95
75891;BME280;64571;47.512;19.054;2023-02-03T14:21:51;100529.91;;;2.59;90.96
75891;BME280;64571;47.512;19.054;2023-02-03T14:24:55;100519.63;;;2.66;91.13
75891;BME280;64571;47.512;19.054;2023-02-03T14:28:05;100517.47;;;2.68;90.96
75891;BME280;64571;47.512;19.054;2023-02-03T14:31:21;100515.91;;;2.72;91.05
75891;BME280;64571;47.512;19.054;2023-02-03T14:37:38;100514.34;;;2.76;90.84
75891;BME280;64571;47.512;19.054;2023-02-03T14:40:55;100507.66;;;2.72;91.16
75891;BME280;64571;47.512;19.054;2023-02-03T14:44:52;100509.53;;;2.84;91.12
75891;BME280;64571;47.512;19.054;2023-02-03T14:48:03;100492.56;;;2.87;90.99
75891;BME280;64571;47.512;19.054;2023-02-03T14:57:55;100483.47;;;2.98;90.94
75891;BME280;64571;47.512;19.054;2023-02-03T15:01:04;100478.91;;;3.03;91.00
75891;BME280;64571;47.512;19.054;2023-02-03T15:07:41;100451.50;;;2.92;91.28
75891;BME280;64571;47.512;19.054;2023-02-03T15:10:49;100455.28;;;3.02;91.41
75891;BME280;64571;47.512;19.054;2023-02-03T15:13:53;100447.63;;;3.04;91.73
75891;BME280;64571;47.512;19.054;2023-02-03T15:17:01;100440.31;;;3.10;91.70
75891;BME280;64571;47.512;19.054;2023-02-03T15:20:36;100415.69;;;2.98;91.71
75891;BME280;64571;47.512;19.054;2023-02-03T15:23:44;100427.19;;;3.12;91.90
75891;BME280;64571;47.512;19.054;2023-02-03T15:26:54;100421.75;;;3.17;92.03
75891;BME280;64571;47.512;19.054;2023-02-03T15:29:57;100406.19;;;3.06;92.17
75891;BME280;64571;47.512;19.054;2023-02-03T15:33:05;100406.47;;;3.21;92.07
75891;BME280;64571;47.512;19.054;2023-02-03T15:36:19;100412.53;;;3.23;92.02
75891;BME280;64571;47.512;19.054;2023-02-03T15:42:53;100402.69;;;3.27;91.49
75891;BME280;64571;47.512;19.054;2023-02-03T15:49:27;100397.22;;;3.27;91.32
75891;BME280;64571;47.512;19.054;2023-02-03T15:52:33;100381.34;;;3.29;91.11
75891;BME280;64571;47.512;19.054;2023-02-03T15:55:45;100374.59;;;3.20;90.85
75891;BME280;64571;47.512;19.054;2023-02-03T15:58:49;100360.88;;;3.20;90.77
75891;BME280;64571;47.512;19.054;2023-02-03T16:01:52;100386.47;;;3.43;90.59
75891;BME280;64571;47.512;19.054;2023-02-03T16:05:04;100368.00;;;3.38;89.97
75891;BME280;64571;47.512;19.054;2023-02-03T16:08:34;100374.06;;;3.40;90.13
75891;BME280;64571;47.512;19.054;2023-02-03T16:11:38;100380.38;;;3.41;90.04
75891;BME280;64571;47.512;19.054;2023-02-03T16:14:41;100376.41;;;3.32;89.72
75891;BME280;64571;47.512;19.054;2023-02-03T16:17:44;100358.87;;;3.16;89.88
75891;BME280;64571;47.512;19.054;2023-02-03T16:20:50;100371.50;;;3.34;90.29
75891;BME280;64571;47.512;19.054;2023-02-03T16:23:53;100355.69;;;3.24;89.78
75891;BME280;64571;47.512;19.054;2023-02-03T16:30:22;100345.69;;;3.35;89.98
75891;BME280;64571;47.512;19.054;2023-02-03T16:33:48;100334.47;;;3.19;89.30
75891;BME280;64571;47.512;19.054;2023-02-03T16:37:11;100337.38;;;3.29;90.09
75891;BME280;64571;47.512;19.054;2023-02-03T16:40:32;100313.09;;;3.21;89.58
75891;BME280;64571;47.512;19.054;2023-02-03T16:43:54;100295.25;;;3.02;89.28
75891;BME280;64571;47.512;19.054;2023-02-03T16:47:26;100310.69;;;3.08;89.26
75891;BME280;64571;47.512;19.054;2023-02-03T16:50:48;100310.78;;;3.13;89.56
75891;BME280;64571;47.512;19.054;2023-02-03T16:54:00;100299.97;;;3.07;89.77
75891;BME280;64571;47.512;19.054;2023-02-03T16:57:03;100294.28;;;3.13;89.58
75891;BME280;64571;47.512;19.054;2023-02-03T17:00:05;100266.19;;;3.06;89.36
75891;BME280;64571;47.512;19.054;2023-02-03T17:03:12;100261.75;;;3.22;89.17
75891;BME280;64571;47.512;19.054;2023-02-03T17:06:15;100249.44;;;3.24;89.23
75891;BME280;64571;47.512;19.054;2023-02-03T17:09:18;100254.31;;;3.39;88.53
75891;BME280;64571;47.512;19.054;2023-02-03T17:12:24;100243.66;;;3.43;88.70
75891;BME280;64571;47.512;19.054;2023-02-03T17:15:32;100237.19;;;3.54;88.78
75891;BME280;64571;47.512;19.054;2023-02-03T17:18:35;100214.75;;;3.62;88.84
75891;BME280;64571;47.512;19.054;2023-02-03T17:21:38;100219.34;;;3.78;88.65
75891;BME280;64571;47.512;19.054;2023-02-03T17:24:40;100220.56;;;3.88;88.57
75891;BME280;64571;47.512;19.054;2023-02-03T17:27:43;100189.41;;;3.82;88.46
75891;BME280;64571;47.512;19.054;2023-02-03T17:30:54;100195.97;;;4.03;88.62
75891;BME280;64571;47.512;19.054;2023-02-03T17:33:57;100196.81;;;4.09;88.64
75891;BME280;64571;47.512;19.054;2023-02-03T17:37:00;100194.94;;;4.14;88.57
75891;BME280;64571;47.512;19.054;2023-02-03T17:40:03;100174.50;;;4.05;88.45
75891;BME280;64571;47.512;19.054;2023-02-03T17:43:23;100184.88;;;4.25;88.27
75891;BME280;64571;47.512;19.054;2023-02-03T17:46:43;100182.72;;;4.32;88.03
75891;BME280;64571;47.512;19.054;2023-02-03T17:50:03;100165.16;;;4.33;88.07
75891;BME280;64571;47.512;19.054;2023-02-03T17:53:23;100173.75;;;4.42;88.13
75891;BME280;64571;47.512;19.054;2023-02-03T17:56:26;100161.69;;;4.48;87.78
75891;BME280;64571;47.512;19.054;2023-02-03T17:59:29;100136.59;;;4.39;87.50
75891;BME280;64571;47.512;19.054;2023-02-03T18:02:32;100157.91;;;4.59;87.69